Airfield :
LOGIN :

Register | Disclaimer

   EN    FR    IT 

 










Legend :    VFR   Marginal VFR   IFR   Intensive IFR   Very Intensive IFR
Visi :
Ceiling :
>= 8 km
>= 3000ft
5 to 8 km
1000 to 3000 ft
1500m to 5 km
500 to 1000 ft
800 to 1500m
200 to 500 ft
< 800m
< 200 ft
Symbols :   Thunderstorms  Fog  Heavy snow  Heavy precipitations  Wind > 20 kt
SIGMETs :     Misc.  Thunderstorms  Icing  Turbulence  Mountain Waves  Volcanic Ashes






- Airport Elevation : 479 ft
- IATA code : DOL


LFRG - Deauville

CURRENT METAR :
  • 240900Z AUTO 17010KT 150V210 5000 R30/1400U -SN BR BKN003/// OVC007/// ///TCU 00/M00 Q0999 TEMPO 20015G25KT 2000 SHSN BKN005 BKN010CB

EXPIRED METARs :
  • 240830Z AUTO 18010KT 2000 1400 R30/2000D SN BR BKN011/// BKN018/// BKN037/// ///TCU 01/M00 Q0999 TEMPO 20015G25KT BKN005 BKN010CB
  • 240800Z AUTO 17010KT 9999 ///TCU 01/M02 Q0999 TEMPO 20015G25KT 2000 SHSN BKN005 BKN010CB
  • 240730Z AUTO 17011KT CAVOK 01/M02 Q1000 TEMPO 20015G25KT 2000 SHSN BKN005 BKN010CB
  • 240700Z AUTO 18010KT CAVOK 01/M02 Q1000 NOSIG
  • 240630Z AUTO 18010KT CAVOK 00/M02 Q1000 NOSIG

TAF TAF LFRG
Valid from the 24 at 09:00 until the 24 at 18:00 UTC


240800Z 2409/2418 19012KT 9999 BKN020
TEMPO 2409/2412 20015G25KT 3000 SHRASN BKN005 BKN010CB
PROB40
TEMPO 2409/2412 2000 SHSN BKN003
BECMG 2411/2413 24012KT
PROB40
TEMPO 2412/2418 24015G25KT 4000 SHRAGS BKN015CB
ATIS : +33 2 31 65 65 36



MET'MAP, your aeronautical weather chart ! - Copyright ORBIFLY December 2007 - Disclaimer

ORBIFLY MET'MAP TEAM :

Programming & Development : Alexandra Zaïnal
Concept & original design : Baudouin d'Aumeries
Assistance for programming : Marc-Olivier Méhu
Technical & hardware support : Manuel Goepfert

Contact : metmap@orbifly.com




SOURCES & CREDITS :

   NOAA